Time;durP1;ratioP1;P1;durP2;ratioP2;P2;SDS_P1;SDS_P2;PMS_P1;PMS_P2;Temp;Humidity;BMP_temperature;BMP_pressure;BME280_temperature;BME280_humidity;BME280_pressure;Samples;Min_cycle;Max_cycle;Signal;HPM_P1;HPM_P2
2023/08/08 00:01:42;;;;;;;;;;;12.80;99.90;;;;;;12249958;29;20017;-36
2023/08/08 00:07:44;;;;;;;;;;;12.70;99.90;;;;;;12247134;29;20035;-36
2023/08/08 00:13:46;;;;;;;;;;;12.70;99.90;;;;;;12242749;29;19927;-37
2023/08/08 00:19:47;;;;;;;;;;;12.70;99.90;;;;;;12238646;29;19931;-36
2023/08/08 00:25:50;;;;;;;;;;;12.80;99.90;;;;;;12238896;29;20030;-36
2023/08/08 00:31:52;;;;;;;;;;;12.80;99.90;;;;;;12244618;29;19927;-36
2023/08/08 00:37:54;;;;;;;;;;;12.80;99.90;;;;;;12237902;29;20010;-36
2023/08/08 00:43:56;;;;;;;;;;;12.80;99.90;;;;;;12252074;29;20056;-37
2023/08/08 00:49:57;;;;;;;;;;;12.70;99.90;;;;;;12249931;29;20409;-37
2023/08/08 00:55:59;;;;;;;;;;;12.70;99.90;;;;;;12244807;29;20363;-37
2023/08/08 01:02:01;;;;;;;;;;;12.70;99.90;;;;;;12238221;29;19958;-36
2023/08/08 01:08:04;;;;;;;;;;;12.70;99.90;;;;;;12244703;29;20025;-36
2023/08/08 01:14:07;;;;;;;;;;;12.70;99.90;;;;;;12247291;29;20058;-37
2023/08/08 01:20:10;;;;;;;;;;;12.70;99.90;;;;;;12247759;29;20065;-36
2023/08/08 01:26:12;;;;;;;;;;;12.70;99.90;;;;;;12243180;29;19955;-37
2023/08/08 01:32:13;;;;;;;;;;;12.60;99.90;;;;;;12244223;29;19978;-36
2023/08/08 01:38:26;;;;;;;;;;;12.70;99.90;;;;;;12254122;29;20033;-36
2023/08/08 01:44:28;;;;;;;;;;;12.70;99.90;;;;;;12242700;29;19942;-36
2023/08/08 01:50:30;;;;;;;;;;;12.70;99.90;;;;;;12243008;29;19931;-36
2023/08/08 01:56:31;;;;;;;;;;;12.70;99.90;;;;;;12244861;28;20273;-37
2023/08/08 02:02:35;;;;;;;;;;;12.80;99.90;;;;;;12252535;29;19981;-36
2023/08/08 02:08:37;;;;;;;;;;;12.90;99.90;;;;;;12248707;29;19927;-36
2023/08/08 02:14:39;;;;;;;;;;;12.90;99.90;;;;;;12254124;29;20326;-36
2023/08/08 02:20:40;;;;;;;;;;;12.90;99.90;;;;;;12253868;29;20374;-37
2023/08/08 02:26:42;;;;;;;;;;;12.90;99.90;;;;;;12250624;29;19962;-36
2023/08/08 02:32:44;;;;;;;;;;;13.00;99.90;;;;;;12254675;29;19977;-36
2023/08/08 02:38:45;;;;;;;;;;;13.00;99.90;;;;;;12244754;29;19938;-36
2023/08/08 02:44:47;;;;;;;;;;;13.00;99.90;;;;;;12252149;29;19927;-36
2023/08/08 02:50:49;;;;;;;;;;;13.00;99.90;;;;;;12254744;29;19939;-37
2023/08/08 02:56:51;;;;;;;;;;;13.00;99.90;;;;;;12242255;29;20428;-36
2023/08/08 03:02:52;;;;;;;;;;;13.00;99.90;;;;;;12239934;29;20013;-36
2023/08/08 03:08:54;;;;;;;;;;;13.00;99.90;;;;;;12239126;28;19951;-36
2023/08/08 03:14:56;;;;;;;;;;;13.00;99.90;;;;;;12234113;29;19934;-36
2023/08/08 03:20:58;;;;;;;;;;;12.90;99.90;;;;;;12240184;29;20290;-36
2023/08/08 03:27:00;;;;;;;;;;;12.90;99.90;;;;;;12240764;28;20244;-36
2023/08/08 03:33:01;;;;;;;;;;;13.00;99.90;;;;;;12237899;29;20013;-36
2023/08/08 03:39:03;;;;;;;;;;;13.00;99.90;;;;;;12236262;29;19958;-36
2023/08/08 03:45:05;;;;;;;;;;;13.00;99.90;;;;;;12241908;29;19927;-36
2023/08/08 03:51:07;;;;;;;;;;;12.80;99.90;;;;;;12236759;29;20048;-38
2023/08/08 03:57:09;;;;;;;;;;;12.90;99.90;;;;;;12234999;29;19927;-35
2023/08/08 04:03:10;;;;;;;;;;;12.90;99.90;;;;;;12229439;29;20042;-38
2023/08/08 04:09:15;;;;;;;;;;;12.80;99.90;;;;;;12239860;29;19975;-36
2023/08/08 04:15:17;;;;;;;;;;;12.80;99.90;;;;;;12237013;29;20427;-36
2023/08/08 04:21:19;;;;;;;;;;;12.80;99.90;;;;;;12237747;29;20234;-37
2023/08/08 04:27:20;;;;;;;;;;;12.80;99.90;;;;;;12237261;28;20358;-36
2023/08/08 04:33:22;;;;;;;;;;;12.90;99.90;;;;;;12235471;29;20046;-36
2023/08/08 04:39:24;;;;;;;;;;;12.90;99.90;;;;;;12238032;29;20018;-36
2023/08/08 04:45:27;;;;;;;;;;;12.90;99.90;;;;;;12231107;29;19966;-36
2023/08/08 04:51:28;;;;;;;;;;;12.90;99.90;;;;;;12223486;29;20025;-37
2023/08/08 04:57:30;;;;;;;;;;;12.90;99.90;;;;;;12230045;29;20063;-36
2023/08/08 05:03:32;;;;;;;;;;;12.90;99.90;;;;;;12235140;29;20334;-35
2023/08/08 05:09:34;;;;;;;;;;;13.00;99.90;;;;;;12219772;29;20525;-36
2023/08/08 05:15:35;;;;;;;;;;;13.00;99.90;;;;;;12236446;29;19934;-36
2023/08/08 05:21:37;;;;;;;;;;;13.00;99.90;;;;;;12236900;29;19963;-36
2023/08/08 05:27:39;;;;;;;;;;;13.10;99.90;;;;;;12230410;29;20414;-37
2023/08/08 05:33:41;;;;;;;;;;;13.10;99.90;;;;;;12234727;29;19966;-36
2023/08/08 05:39:44;;;;;;;;;;;13.10;99.90;;;;;;12235704;29;19977;-36
2023/08/08 05:45:45;;;;;;;;;;;13.20;99.90;;;;;;12239204;29;19989;-36
2023/08/08 05:51:47;;;;;;;;;;;13.30;99.90;;;;;;12240652;29;20925;-38
2023/08/08 05:57:49;;;;;;;;;;;13.40;99.90;;;;;;12243617;29;19933;-36
2023/08/08 06:03:51;;;;;;;;;;;13.50;99.90;;;;;;12239601;29;20153;-36
2023/08/08 06:09:52;;;;;;;;;;;13.50;99.90;;;;;;12242210;29;19927;-36
2023/08/08 06:15:54;;;;;;;;;;;13.70;99.90;;;;;;12242591;29;20399;-36
2023/08/08 06:21:56;;;;;;;;;;;13.80;99.90;;;;;;12240433;29;20017;-35
2023/08/08 06:27:58;;;;;;;;;;;13.90;99.90;;;;;;12233494;29;20029;-37
2023/08/08 06:33:59;;;;;;;;;;;14.00;99.90;;;;;;12240076;29;19930;-36
2023/08/08 06:40:01;;;;;;;;;;;14.30;99.90;;;;;;12239014;29;19930;-37
2023/08/08 06:46:03;;;;;;;;;;;14.50;99.90;;;;;;12237000;29;19989;-36
2023/08/08 06:52:05;;;;;;;;;;;14.60;99.90;;;;;;12244091;29;19927;-36
2023/08/08 06:58:07;;;;;;;;;;;14.70;99.90;;;;;;12239266;29;19973;-36
2023/08/08 07:04:08;;;;;;;;;;;14.80;99.90;;;;;;12238392;29;20327;-38
2023/08/08 07:10:12;;;;;;;;;;;14.80;99.90;;;;;;12236788;29;19927;-36
2023/08/08 07:16:14;;;;;;;;;;;15.00;99.90;;;;;;12238269;29;19958;-36
2023/08/08 07:22:16;;;;;;;;;;;15.30;99.90;;;;;;12240851;29;19977;-36
2023/08/08 07:28:18;;;;;;;;;;;15.30;99.90;;;;;;12241053;28;19966;-36
2023/08/08 07:34:20;;;;;;;;;;;15.30;99.90;;;;;;12238148;29;20298;-36
2023/08/08 07:40:21;;;;;;;;;;;15.30;99.90;;;;;;12242117;29;19973;-36
2023/08/08 07:46:23;;;;;;;;;;;15.40;99.90;;;;;;12236666;29;19930;-37
2023/08/08 07:52:25;;;;;;;;;;;15.40;99.90;;;;;;12238485;29;20268;-36
2023/08/08 07:58:27;;;;;;;;;;;15.30;99.90;;;;;;12229275;29;20023;-36
2023/08/08 08:04:28;;;;;;;;;;;15.10;99.90;;;;;;12235805;29;19934;-36
2023/08/08 08:10:30;;;;;;;;;;;15.10;99.90;;;;;;12240697;29;19931;-35
2023/08/08 08:16:33;;;;;;;;;;;15.40;99.90;;;;;;12236288;29;20114;-36
2023/08/08 08:22:35;;;;;;;;;;;15.80;99.90;;;;;;12230569;29;19931;-36
2023/08/08 08:28:36;;;;;;;;;;;15.30;99.90;;;;;;12227727;29;20002;-36
2023/08/08 08:34:38;;;;;;;;;;;14.90;99.90;;;;;;12227096;29;19977;-36
2023/08/08 08:40:41;;;;;;;;;;;14.70;99.90;;;;;;12232457;29;19927;-36
2023/08/08 08:46:44;;;;;;;;;;;14.70;99.90;;;;;;12233710;28;19978;-36
2023/08/08 08:52:46;;;;;;;;;;;15.00;99.90;;;;;;12234783;29;19927;-36
2023/08/08 08:58:48;;;;;;;;;;;14.90;99.90;;;;;;12226022;29;19966;-36
2023/08/08 09:04:50;;;;;;;;;;;14.70;99.90;;;;;;12232699;29;20017;-38
2023/08/08 09:10:52;;;;;;;;;;;14.50;99.90;;;;;;12239591;29;19927;-36
2023/08/08 09:16:54;;;;;;;;;;;14.70;99.90;;;;;;12225835;29;20864;-36
2023/08/08 09:22:56;;;;;;;;;;;15.30;99.90;;;;;;12239856;29;20158;-37
2023/08/08 09:28:58;;;;;;;;;;;16.10;99.90;;;;;;12239740;29;20414;-36
2023/08/08 09:35:00;;;;;;;;;;;16.60;99.90;;;;;;12238496;29;20327;-37
2023/08/08 09:41:02;;;;;;;;;;;16.80;99.90;;;;;;12238269;29;19934;-36
2023/08/08 09:47:04;;;;;;;;;;;16.70;99.90;;;;;;12251830;29;19933;-36
2023/08/08 09:53:06;;;;;;;;;;;16.60;99.90;;;;;;12248081;29;20010;-36
2023/08/08 09:59:09;;;;;;;;;;;16.20;99.90;;;;;;12247495;29;19934;-36
2023/08/08 10:05:12;;;;;;;;;;;16.00;99.90;;;;;;12249974;29;19930;-38
2023/08/08 10:11:14;;;;;;;;;;;16.30;99.90;;;;;;12252380;29;20299;-37
2023/08/08 10:17:16;;;;;;;;;;;16.60;99.90;;;;;;12244280;29;19957;-36
2023/08/08 10:23:18;;;;;;;;;;;17.40;99.90;;;;;;12240516;29;19938;-36
2023/08/08 10:29:20;;;;;;;;;;;17.80;99.90;;;;;;12246352;29;19936;-36
2023/08/08 10:35:24;;;;;;;;;;;18.00;99.90;;;;;;12247526;29;19996;-36
2023/08/08 10:41:26;;;;;;;;;;;17.90;99.90;;;;;;12247995;29;20283;-36
2023/08/08 10:47:33;;;;;;;;;;;18.10;99.90;;;;;;12246351;29;19974;-36
2023/08/08 10:53:36;;;;;;;;;;;17.70;99.90;;;;;;12232242;29;19927;-36
2023/08/08 10:59:38;;;;;;;;;;;17.30;99.90;;;;;;12234004;29;20061;-36
2023/08/08 11:05:44;;;;;;;;;;;17.00;99.90;;;;;;12244243;29;20077;-36
2023/08/08 11:11:46;;;;;;;;;;;16.90;99.90;;;;;;12252787;29;19926;-36
2023/08/08 11:17:48;;;;;;;;;;;16.90;99.90;;;;;;12243005;29;20288;-36
2023/08/08 11:23:50;;;;;;;;;;;17.10;99.90;;;;;;12248293;29;19970;-37
2023/08/08 11:29:52;;;;;;;;;;;17.60;99.90;;;;;;12216177;29;20465;-37
2023/08/08 11:35:54;;;;;;;;;;;17.70;99.90;;;;;;12249009;29;20284;-36
2023/08/08 11:41:56;;;;;;;;;;;17.40;99.90;;;;;;12234067;29;19941;-36
2023/08/08 11:48:01;;;;;;;;;;;17.60;99.90;;;;;;12239023;28;19934;-36
2023/08/08 11:54:06;;;;;;;;;;;18.20;99.90;;;;;;12239401;29;20347;-34
2023/08/08 12:00:08;;;;;;;;;;;18.40;99.90;;;;;;12242153;29;20358;-34
2023/08/08 12:06:16;;;;;;;;;;;18.10;99.90;;;;;;12253542;29;19927;-34
2023/08/08 12:12:19;;;;;;;;;;;17.50;99.90;;;;;;12246777;29;20073;-34
2023/08/08 12:18:22;;;;;;;;;;;17.10;99.90;;;;;;12240159;29;19950;-33
2023/08/08 12:24:23;;;;;;;;;;;16.30;99.90;;;;;;12238861;29;19998;-33
2023/08/08 12:30:25;;;;;;;;;;;16.20;99.90;;;;;;12232909;29;19978;-34
2023/08/08 12:36:27;;;;;;;;;;;16.80;99.90;;;;;;12231934;29;19927;-34
2023/08/08 12:42:29;;;;;;;;;;;17.20;99.90;;;;;;12239185;29;19942;-35
2023/08/08 12:48:31;;;;;;;;;;;17.90;99.90;;;;;;12238665;29;19931;-34
2023/08/08 12:54:32;;;;;;;;;;;18.60;99.90;;;;;;12245983;29;20426;-34
2023/08/08 13:00:34;;;;;;;;;;;18.80;99.90;;;;;;12243208;29;19938;-34
2023/08/08 13:06:36;;;;;;;;;;;18.90;99.90;;;;;;12235256;29;19931;-34
2023/08/08 13:12:38;;;;;;;;;;;18.90;99.90;;;;;;12230550;29;20364;-34
2023/08/08 13:18:40;;;;;;;;;;;18.80;99.90;;;;;;12238991;29;19927;-36
2023/08/08 13:24:41;;;;;;;;;;;18.50;99.90;;;;;;12223111;29;20386;-34
2023/08/08 13:30:43;;;;;;;;;;;18.10;99.90;;;;;;12241267;29;20047;-34
2023/08/08 13:36:45;;;;;;;;;;;17.60;99.90;;;;;;12238677;29;19979;-34
2023/08/08 13:42:48;;;;;;;;;;;17.30;99.90;;;;;;12232091;29;19927;-34
2023/08/08 13:48:49;;;;;;;;;;;17.50;99.90;;;;;;12226374;29;19938;-34
2023/08/08 13:54:51;;;;;;;;;;;17.70;99.90;;;;;;12241714;29;19930;-34
2023/08/08 14:00:54;;;;;;;;;;;17.70;99.90;;;;;;12256402;29;19934;-34
2023/08/08 14:06:56;;;;;;;;;;;17.90;99.90;;;;;;12246888;29;19970;-34
2023/08/08 14:12:57;;;;;;;;;;;17.90;99.90;;;;;;12244683;29;20025;-34
2023/08/08 14:18:59;;;;;;;;;;;17.90;99.90;;;;;;12246147;29;20017;-35
2023/08/08 14:25:01;;;;;;;;;;;17.80;99.90;;;;;;12250932;29;19931;-34
2023/08/08 14:31:05;;;;;;;;;;;17.70;99.90;;;;;;12252314;29;19985;-34
2023/08/08 14:37:07;;;;;;;;;;;17.50;99.90;;;;;;12248820;29;20395;-34
2023/08/08 14:43:12;;;;;;;;;;;16.00;99.90;;;;;;12229951;29;20359;-33
2023/08/08 14:49:14;;;;;;;;;;;15.50;99.90;;;;;;12236524;29;20174;-34
2023/08/08 14:55:16;;;;;;;;;;;15.70;99.90;;;;;;12246488;29;19977;-35
2023/08/08 15:01:17;;;;;;;;;;;16.40;99.90;;;;;;12238995;29;19931;-34
2023/08/08 15:07:19;;;;;;;;;;;16.40;99.90;;;;;;12233064;28;19935;-35
2023/08/08 15:13:21;;;;;;;;;;;16.40;99.90;;;;;;12235847;29;19927;-34
2023/08/08 15:19:23;;;;;;;;;;;16.30;99.90;;;;;;12237586;29;19989;-35
2023/08/08 15:25:24;;;;;;;;;;;16.20;99.90;;;;;;12237685;29;19969;-34
2023/08/08 15:31:26;;;;;;;;;;;16.30;99.90;;;;;;12234798;29;19997;-34
2023/08/08 15:37:28;;;;;;;;;;;16.40;99.90;;;;;;12238236;29;19934;-35
2023/08/08 15:43:30;;;;;;;;;;;16.40;99.90;;;;;;12235557;29;20010;-34
2023/08/08 15:49:32;;;;;;;;;;;16.20;99.90;;;;;;12245386;29;20311;-34
2023/08/08 15:55:34;;;;;;;;;;;16.80;99.90;;;;;;12240213;29;19962;-35
2023/08/08 16:01:36;;;;;;;;;;;17.70;99.90;;;;;;12228593;29;20280;-34
2023/08/08 16:07:38;;;;;;;;;;;17.70;99.90;;;;;;12292154;23;20271;-85
2023/08/08 16:13:42;;;;;;;;;;;17.90;99.90;;;;;;12356227;28;20000;-86
2023/08/08 16:19:49;;;;;;;;;;;18.00;99.90;;;;;;12354823;23;21625;-37
2023/08/08 16:26:04;;;;;;;;;;;17.80;99.90;;;;;;12370566;28;20282;-36
2023/08/08 16:32:18;;;;;;;;;;;17.80;99.90;;;;;;12383145;28;20076;-36
2023/08/08 16:38:36;;;;;;;;;;;18.10;99.90;;;;;;12385005;28;19926;-36
2023/08/08 16:45:28;;;;;;;;;;;18.10;99.90;;;;;;12373690;28;19933;-36
2023/08/08 16:51:49;;;;;;;;;;;17.60;99.90;;;;;;12390220;28;20059;-36
2023/08/08 16:58:13;;;;;;;;;;;17.40;99.90;;;;;;12370941;28;19937;-36
2023/08/08 17:04:29;;;;;;;;;;;15.90;99.90;;;;;;12381633;28;20028;-36
2023/08/08 17:10:48;;;;;;;;;;;15.10;99.90;;;;;;12328127;28;19937;-36
2023/08/08 17:17:08;;;;;;;;;;;15.20;99.90;;;;;;12328894;28;20022;-36
2023/08/08 17:23:23;;;;;;;;;;;15.60;99.90;;;;;;12357526;28;19930;-37
2023/08/08 17:29:32;;;;;;;;;;;16.00;99.90;;;;;;12382338;28;19933;-36
2023/08/08 17:35:42;;;;;;;;;;;16.00;99.90;;;;;;12373414;28;19981;-37
2023/08/08 17:41:49;;;;;;;;;;;16.10;99.90;;;;;;12377943;28;19969;-37
2023/08/08 17:48:07;;;;;;;;;;;16.30;99.90;;;;;;12379093;28;20017;-37
2023/08/08 17:54:21;;;;;;;;;;;16.50;99.90;;;;;;12383172;28;19926;-36
2023/08/08 18:00:39;;;;;;;;;;;16.60;99.90;;;;;;12370841;28;20504;-36
2023/08/08 18:06:54;;;;;;;;;;;16.50;99.90;;;;;;12372964;28;19930;-36
2023/08/08 18:13:09;;;;;;;;;;;16.20;99.90;;;;;;12375346;28;19925;-36
2023/08/08 18:19:22;;;;;;;;;;;16.20;99.90;;;;;;12380498;28;19933;-36
2023/08/08 18:25:42;;;;;;;;;;;15.90;99.90;;;;;;12393160;28;19932;-36
2023/08/08 18:32:03;;;;;;;;;;;15.80;99.90;;;;;;12379960;28;19933;-37
2023/08/08 18:38:18;;;;;;;;;;;15.60;99.90;;;;;;12384619;28;19926;-36
2023/08/08 18:44:33;;;;;;;;;;;15.50;99.90;;;;;;12371616;28;20413;-37
2023/08/08 18:50:51;;;;;;;;;;;15.40;99.90;;;;;;12371611;28;20539;-36
2023/08/08 18:57:06;;;;;;;;;;;15.40;99.90;;;;;;12397200;28;19926;-36
2023/08/08 19:03:13;;;;;;;;;;;15.20;99.90;;;;;;12385042;28;20329;-37
2023/08/08 19:09:20;;;;;;;;;;;15.20;99.90;;;;;;12389559;28;19945;-36
2023/08/08 19:15:33;;;;;;;;;;;15.20;99.90;;;;;;12374531;28;20229;-36
2023/08/08 19:21:38;;;;;;;;;;;15.10;99.90;;;;;;12375452;28;19933;-36
2023/08/08 19:27:44;;;;;;;;;;;15.00;99.90;;;;;;12380267;28;19933;-36
2023/08/08 19:33:52;;;;;;;;;;;15.00;99.90;;;;;;12387195;28;19933;-36
2023/08/08 19:40:17;;;;;;;;;;;14.90;99.90;;;;;;12373937;28;19930;-37
2023/08/08 19:46:37;;;;;;;;;;;14.90;99.90;;;;;;12383088;28;19953;-36
2023/08/08 19:52:56;;;;;;;;;;;14.90;99.90;;;;;;12363397;28;19952;-36
2023/08/08 19:59:16;;;;;;;;;;;14.90;99.90;;;;;;12377132;28;20189;-36
2023/08/08 20:05:37;;;;;;;;;;;14.90;99.90;;;;;;12377812;28;19933;-36
2023/08/08 20:11:52;;;;;;;;;;;14.70;99.90;;;;;;12377071;28;19926;-36
2023/08/08 20:18:02;;;;;;;;;;;14.40;99.90;;;;;;12390800;28;20456;-36
2023/08/08 20:24:20;;;;;;;;;;;14.40;99.90;;;;;;12350006;28;19937;-36
2023/08/08 20:30:41;;;;;;;;;;;14.40;99.90;;;;;;12382351;28;19934;-36
2023/08/08 20:37:01;;;;;;;;;;;14.30;99.90;;;;;;12372027;28;19933;-36
2023/08/08 20:43:13;;;;;;;;;;;14.10;99.90;;;;;;12387241;28;19929;-37
2023/08/08 20:49:30;;;;;;;;;;;14.10;99.90;;;;;;12378311;28;19926;-36
2023/08/08 20:55:53;;;;;;;;;;;14.00;99.90;;;;;;12364052;28;19977;-36
2023/08/08 21:02:09;;;;;;;;;;;14.00;99.90;;;;;;12382884;28;20402;-38
2023/08/08 21:08:16;;;;;;;;;;;14.00;99.90;;;;;;12392996;28;19976;-36
2023/08/08 21:14:25;;;;;;;;;;;14.10;99.90;;;;;;12399841;28;19992;-36
2023/08/08 21:20:32;;;;;;;;;;;14.00;99.90;;;;;;12400791;28;19972;-36
2023/08/08 21:26:48;;;;;;;;;;;14.00;99.90;;;;;;12383093;28;19933;-36
2023/08/08 21:33:07;;;;;;;;;;;13.90;99.90;;;;;;12389893;28;19926;-37
2023/08/08 21:39:23;;;;;;;;;;;13.80;99.90;;;;;;12398861;28;19969;-36
2023/08/08 21:45:43;;;;;;;;;;;13.80;99.90;;;;;;12381747;28;19930;-36
2023/08/08 21:52:04;;;;;;;;;;;13.70;99.90;;;;;;12382475;28;19937;-36
2023/08/08 21:58:18;;;;;;;;;;;13.60;99.90;;;;;;12394272;28;19925;-36
2023/08/08 22:04:39;;;;;;;;;;;13.50;99.90;;;;;;12391905;28;19933;-36
2023/08/08 22:11:08;;;;;;;;;;;13.40;99.90;;;;;;12388078;28;20100;-36
2023/08/08 22:17:39;;;;;;;;;;;13.20;99.90;;;;;;12382766;28;19988;-36
2023/08/08 22:24:24;;;;;;;;;;;13.20;99.90;;;;;;12372935;28;19926;-37
2023/08/08 22:30:39;;;;;;;;;;;13.20;99.90;;;;;;12396653;28;20381;-36
2023/08/08 22:37:01;;;;;;;;;;;13.20;99.90;;;;;;12371507;28;19973;-36
2023/08/08 22:43:19;;;;;;;;;;;13.20;99.90;;;;;;12384274;28;19930;-36
2023/08/08 22:49:42;;;;;;;;;;;13.10;99.90;;;;;;12384848;28;19933;-36
2023/08/08 22:56:01;;;;;;;;;;;13.10;99.90;;;;;;12380328;28;19926;-36
2023/08/08 23:02:20;;;;;;;;;;;13.10;99.90;;;;;;12386987;28;19934;-36
2023/08/08 23:08:45;;;;;;;;;;;13.10;99.90;;;;;;12394327;28;20077;-36
2023/08/08 23:15:09;;;;;;;;;;;13.20;99.90;;;;;;12400539;28;19934;-36
2023/08/08 23:21:35;;;;;;;;;;;13.00;99.90;;;;;;12376599;28;20009;-36
2023/08/08 23:27:56;;;;;;;;;;;13.00;99.90;;;;;;12374517;28;19926;-36
2023/08/08 23:34:09;;;;;;;;;;;12.80;99.90;;;;;;12373514;28;20016;-36
2023/08/08 23:40:25;;;;;;;;;;;12.80;99.90;;;;;;12368478;28;19937;-36
2023/08/08 23:46:39;;;;;;;;;;;12.80;99.90;;;;;;12375246;28;19926;-36
2023/08/08 23:52:56;;;;;;;;;;;12.80;99.90;;;;;;12384088;28;19933;-36
2023/08/08 23:59:16;;;;;;;;;;;12.80;99.90;;;;;;12363376;28;20024;-37
